Time;durP1;ratioP1;P1;durP2;ratioP2;P2;SDS_P1;SDS_P2;PMS_P1;PMS_P2;Temp;Humidity;BMP_temperature;BMP_pressure;BME280_temperature;BME280_humidity;BME280_pressure;Samples;Min_cycle;Max_cycle;Signal;HPM_P1;HPM_P2
2022/09/19 00:01:59;;;;;;;6.17;2.53;;;10.20;1.00;;;;;;6267810;22;20406;-85
2022/09/19 00:04:38;;;;;;;5.13;2.73;;;10.10;1.00;;;;;;6288268;22;20731;-85
2022/09/19 00:07:55;;;;;;;;;;;;;;;;;;;;;
2022/09/19 00:11:12;;;;;;;;;;;;;;;;;;;;;
2022/09/19 00:17:16;;;;;;;7.93;3.53;;;10.20;1.00;;;;;;6283741;22;20422;-85
2022/09/19 00:20:08;;;;;;;7.70;2.97;;;10.20;1.00;;;;;;6281648;22;20402;-86
2022/09/19 00:25:55;;;;;;;6.20;2.67;;;10.10;1.00;;;;;;6300673;22;20731;-85
2022/09/19 00:28:51;;;;;;;7.60;2.70;;;10.10;1.00;;;;;;6280659;22;20405;-85
2022/09/19 00:34:40;;;;;;;4.93;2.37;;;10.10;1.00;;;;;;6284406;22;20429;-85
2022/09/19 00:37:47;;;;;;;;;;;;;;;;;;;;;
2022/09/19 00:44:24;;;;;;;10.37;3.00;;;10.10;1.00;;;;;;6286401;22;20382;-84
2022/09/19 00:46:59;;;;;;;10.80;2.70;;;10.10;1.00;;;;;;6182669;23;20900;-85
2022/09/19 00:50:13;;;;;;;8.60;2.70;;;10.10;1.00;;;;;;6158553;23;20391;-85
2022/09/19 00:53:27;;;;;;;;;;;;;;;;;;;;;
2022/09/19 00:56:33;;;;;;;8.13;3.03;;;10.10;1.00;;;;;;6293098;22;20935;-85
2022/09/19 01:02:37;;;;;;;5.70;2.27;;;10.10;1.00;;;;;;6281069;22;20797;-86
2022/09/19 01:06:13;;;;;;;9.73;2.60;;;10.10;1.00;;;;;;6260323;22;20769;-85
2022/09/19 01:09:06;;;;;;;6.63;2.33;;;10.10;1.00;;;;;;6300631;22;20778;-86
2022/09/19 01:15:56;;;;;;;7.53;3.10;;;10.00;1.00;;;;;;6274595;22;20438;-85
2022/09/19 01:19:02;;;;;;;9.43;2.77;;;10.00;1.00;;;;;;6306820;22;20459;-86
2022/09/19 01:25:13;;;;;;;6.23;2.70;;;10.00;1.00;;;;;;6169348;23;20386;-85
2022/09/19 01:28:09;;;;;;;10.83;2.50;;;9.90;1.00;;;;;;6274080;22;20417;-86
2022/09/19 01:38:18;;;;;;;11.97;2.57;;;9.90;1.00;;;;;;6134928;23;20385;-86
2022/09/19 01:44:20;;;;;;;11.70;3.20;;;9.90;1.00;;;;;;6294478;22;20424;-86
2022/09/19 01:47:44;;;;;;;9.40;2.70;;;9.80;1.00;;;;;;6206389;22;20929;-87
2022/09/19 01:51:03;;;;;;;;;;;;;;;;;;;;;
2022/09/19 01:54:30;;;;;;;12.30;3.17;;;9.80;1.00;;;;;;6311134;22;20544;-86
2022/09/19 01:57:37;;;;;;;18.23;3.10;;;9.80;1.00;;;;;;6282652;22;20808;-86
2022/09/19 02:00:38;;;;;;;10.03;3.00;;;9.80;1.00;;;;;;6259340;22;20378;-85
2022/09/19 02:03:40;;;;;;;8.27;2.60;;;9.80;1.00;;;;;;6283068;22;20370;-85
2022/09/19 02:12:29;;;;;;;5.50;2.47;;;9.80;1.00;;;;;;6298642;22;20380;-86
2022/09/19 02:18:01;;;;;;;8.47;3.20;;;9.80;1.00;;;;;;6293926;22;20378;-86
2022/09/19 02:28:05;;;;;;;8.20;3.03;;;9.80;1.00;;;;;;6284140;22;20414;-86
2022/09/19 02:31:01;;;;;;;9.90;3.23;;;9.80;1.00;;;;;;6283050;22;20378;-86
2022/09/19 02:33:55;;;;;;;14.27;4.00;;;9.80;1.00;;;;;;6262711;22;20488;-86
2022/09/19 02:36:33;;;;;;;7.47;2.70;;;9.80;1.00;;;;;;6281974;22;20402;-86
2022/09/19 02:39:17;;;;;;;13.60;3.40;;;9.80;1.00;;;;;;6282776;22;20453;-86
2022/09/19 02:48:36;;;;;;;8.23;3.43;;;9.80;1.00;;;;;;6261772;22;20929;-85
2022/09/19 02:52:14;;;;;;;15.10;3.10;;;9.80;1.00;;;;;;6262018;22;20391;-85
2022/09/19 02:55:06;;;;;;;9.43;2.73;;;9.80;1.00;;;;;;6155398;23;20427;-86
2022/09/19 02:58:22;;;;;;;9.40;3.40;;;9.80;1.00;;;;;;6147818;23;20387;-84
2022/09/19 03:01:31;;;;;;;9.00;3.33;;;9.80;1.00;;;;;;6276330;22;20457;-85
2022/09/19 03:04:32;;;;;;;;;;;;;;;;;;;;;
2022/09/19 03:07:05;;;;;;;10.53;2.90;;;9.70;1.00;;;;;;6301814;22;20950;-85
2022/09/19 03:09:56;;;;;;;17.63;4.40;;;9.70;1.00;;;;;;6284471;22;20393;-86
2022/09/19 03:12:56;;;;;;;12.93;4.10;;;9.70;1.00;;;;;;6284956;22;20385;-85
2022/09/19 03:16:14;;;;;;;10.10;3.17;;;9.70;1.00;;;;;;6268270;22;20418;-86
2022/09/19 03:19:10;;;;;;;12.23;3.70;;;9.70;1.00;;;;;;6245983;22;20404;-85
2022/09/19 03:25:49;;;;;;;;;;;;;;;;;;;;;
2022/09/19 03:28:54;;;;;;;;;;;;;;;;;;;;;
2022/09/19 03:32:25;;;;;;;13.63;4.53;;;9.60;1.00;;;;;;6306519;22;20401;-86
2022/09/19 03:38:10;;;;;;;10.77;5.20;;;9.60;1.00;;;;;;6285893;22;20390;-86
2022/09/19 03:41:17;;;;;;;15.50;4.30;;;9.60;1.00;;;;;;6305624;22;20388;-86
2022/09/19 03:43:51;;;;;;;12.33;3.97;;;9.60;1.00;;;;;;6324018;22;20397;-85
2022/09/19 03:53:13;;;;;;;8.10;4.63;;;9.60;1.00;;;;;;6136464;22;20377;-84
2022/09/19 03:55:56;;;;;;;9.77;4.50;;;9.70;1.00;;;;;;6305525;22;20444;-85
2022/09/19 03:58:35;;;;;;;10.43;3.83;;;9.70;1.00;;;;;;6282505;22;20375;-85
2022/09/19 04:01:14;;;;;;;12.20;4.50;;;9.70;1.00;;;;;;6281434;22;20378;-84
2022/09/19 04:04:06;;;;;;;12.00;3.93;;;9.70;1.00;;;;;;6282450;22;20374;-86
2022/09/19 04:13:38;;;;;;;;;;;;;;;;;;;;;
2022/09/19 04:16:32;;;;;;;6.83;3.57;;;9.90;1.00;;;;;;6302673;22;20912;-84
2022/09/19 04:19:42;;;;;;;10.20;4.03;;;9.90;1.00;;;;;;6276289;22;20386;-86
2022/09/19 04:22:24;;;;;;;9.13;4.27;;;9.90;1.00;;;;;;6251067;22;20393;-85
2022/09/19 04:25:35;;;;;;;16.47;4.40;;;9.90;1.00;;;;;;6282267;22;20376;-86
2022/09/19 04:28:24;;;;;;;8.00;2.93;;;9.90;1.00;;;;;;6282004;22;20459;-85
2022/09/19 04:31:46;;;;;;;7.90;3.10;;;9.90;1.00;;;;;;6281417;22;20382;-84
2022/09/19 04:41:52;;;;;;;9.70;3.93;;;9.90;1.00;;;;;;6249440;22;20455;-85
2022/09/19 04:45:07;;;;;;;;;;;;;;;;;;;;;
2022/09/19 04:54:33;;;;;;;;;;;;;;;;;;;;;
2022/09/19 04:57:27;;;;;;;10.20;3.13;;;10.20;1.00;;;;;;6308805;22;20504;-84
2022/09/19 05:00:13;;;;;;;11.30;3.03;;;10.20;1.00;;;;;;6284069;22;20879;-85
2022/09/19 05:06:06;;;;;;;11.83;2.50;;;10.30;1.00;;;;;;6286092;22;20772;-85
2022/09/19 05:08:37;;;;;;;14.73;2.97;;;10.30;1.00;;;;;;6307385;22;20673;-84
2022/09/19 05:11:22;;;;;;;9.07;3.17;;;10.50;1.00;;;;;;6279457;22;20405;-87
2022/09/19 05:13:52;;;;;;;9.37;3.70;;;10.60;1.00;;;;;;6305630;22;20402;-84
2022/09/19 05:16:20;;;;;;;11.10;3.10;;;10.60;1.00;;;;;;6306290;22;20393;-82
2022/09/19 05:18:49;;;;;;;13.50;3.50;;;10.70;1.00;;;;;;6307402;22;20394;-84
2022/09/19 05:21:22;;;;;;;10.67;3.27;;;10.70;1.00;;;;;;6307447;22;20378;-83
2022/09/19 05:23:51;;;;;;;7.90;2.23;;;10.80;1.00;;;;;;6279442;22;20741;-84
2022/09/19 05:26:27;;;;;;;;;;;;;;;;;;;;;
2022/09/19 05:29:06;;;;;;;8.53;3.23;;;10.80;1.00;;;;;;6302910;22;20473;-83
2022/09/19 05:32:13;;;;;;;14.90;3.40;;;10.80;1.00;;;;;;6305982;22;20374;-83
2022/09/19 05:34:41;;;;;;;10.13;3.90;;;10.90;1.00;;;;;;6306460;22;20445;-84
2022/09/19 05:37:17;;;;;;;14.23;3.63;;;10.90;1.00;;;;;;6279120;22;20417;-84
2022/09/19 05:43:04;;;;;;;13.80;3.53;;;11.00;1.00;;;;;;6284656;22;20378;-85
2022/09/19 05:45:38;;;;;;;13.10;2.97;;;11.10;1.00;;;;;;6307897;22;20394;-85
2022/09/19 05:51:39;;;;;;;17.30;3.70;;;11.20;1.00;;;;;;6307677;22;20906;-84
2022/09/19 05:57:22;;;;;;;13.00;4.03;;;11.30;1.00;;;;;;6307153;22;20420;-84
2022/09/19 06:03:00;;;;;;;13.90;3.50;;;11.50;99.90;;;;;;6283722;22;20382;-85
2022/09/19 06:05:40;;;;;;;11.20;3.20;;;11.50;99.90;;;;;;6307526;22;20391;-84
2022/09/19 06:08:08;;;;;;;7.90;3.40;;;11.60;99.90;;;;;;6280188;22;20369;-84
2022/09/19 06:10:39;;;;;;;10.37;2.87;;;11.70;99.90;;;;;;6280638;22;20378;-83
2022/09/19 06:13:10;;;;;;;15.87;4.00;;;11.90;99.90;;;;;;6308185;22;20400;-84
2022/09/19 06:15:36;;;;;;;8.80;2.73;;;12.20;99.90;;;;;;6307828;22;20387;-84
2022/09/19 06:18:14;;;;;;;14.20;2.33;;;12.30;1.00;;;;;;6307680;22;20773;-83
2022/09/19 06:20:41;;;;;;;9.23;3.17;;;12.60;1.00;;;;;;6309578;22;20504;-86
2022/09/19 06:23:10;;;;;;;10.30;2.67;;;12.80;99.90;;;;;;6309496;22;20371;-85
2022/09/19 06:25:38;;;;;;;22.03;3.03;;;13.00;1.00;;;;;;6278811;22;20695;-87
2022/09/19 06:28:30;;;;;;;10.00;2.30;;;13.00;99.90;;;;;;6309962;22;20467;-88
2022/09/19 06:31:25;;;;;;;9.80;3.20;;;13.00;1.00;;;;;;6265641;22;20382;-86
2022/09/19 06:34:12;;;;;;;17.87;3.00;;;12.90;41.00;;;;;;6292809;22;20429;-88
2022/09/19 06:37:03;;;;;;;14.03;2.40;;;12.90;99.90;;;;;;6281896;22;20431;-88
2022/09/19 06:42:34;;;;;;;6.93;2.80;;;12.90;1.00;;;;;;6287532;22;20397;-85
2022/09/19 06:45:09;;;;;;;;;;;;;;;;;;;;;
2022/09/19 06:47:45;;;;;;;10.50;2.87;;;12.80;1.00;;;;;;6309506;22;20386;-89
2022/09/19 06:50:27;;;;;;;12.50;4.30;;;12.90;19.40;;;;;;6283509;22;20385;-84
2022/09/19 06:53:00;;;;;;;23.90;9.73;;;12.80;1.00;;;;;;6281535;22;20373;-86
2022/09/19 06:55:27;;;;;;;15.23;4.30;;;12.80;90.80;;;;;;6309622;22;20407;-88
2022/09/19 06:57:54;;;;;;;19.77;4.63;;;12.90;99.90;;;;;;6282620;22;20849;-86
2022/09/19 07:00:55;;;;;;;8.47;3.63;;;13.10;1.00;;;;;;6310320;22;20374;-87
2022/09/19 07:03:28;;;;;;;14.03;4.00;;;13.30;1.00;;;;;;6309706;22;20678;-87
2022/09/19 07:06:16;;;;;;;9.37;3.77;;;13.40;99.90;;;;;;6310625;22;20389;-86
2022/09/19 07:09:12;;;;;;;12.37;3.73;;;13.50;9.20;;;;;;6282250;22;20479;-86
2022/09/19 07:11:47;;;;;;;8.83;2.60;;;13.70;99.90;;;;;;6292179;22;20861;-86
2022/09/19 07:14:41;;;;;;;7.73;3.10;;;14.00;99.90;;;;;;6282045;22;20415;-87
2022/09/19 07:17:15;;;;;;;11.97;4.13;;;14.00;1.00;;;;;;6290254;22;20915;-87
2022/09/19 07:19:41;;;;;;;10.50;3.37;;;14.00;1.00;;;;;;6281042;22;20906;-87
2022/09/19 07:22:14;;;;;;;7.07;3.10;;;14.10;1.00;;;;;;6309496;22;20375;-87
2022/09/19 07:24:49;;;;;;;7.90;2.90;;;14.30;99.90;;;;;;6310425;22;20222;-86
2022/09/19 07:27:47;;;;;;;;;;;;;;;;;;;;;
2022/09/19 07:33:08;;;;;;;12.53;3.13;;;15.60;1.00;;;;;;6293361;22;20477;-89
2022/09/19 07:36:06;;;;;;;6.47;2.40;;;15.70;1.00;;;;;;6280914;22;20490;-88
2022/09/19 07:38:37;;;;;;;6.30;2.90;;;15.90;1.00;;;;;;6281295;22;20445;-86
2022/09/19 07:41:09;;;;;;;14.83;3.40;;;16.20;99.90;;;;;;6308937;22;20880;-86
2022/09/19 07:43:35;;;;;;;11.33;2.87;;;16.30;99.90;;;;;;6308979;22;20363;-87
2022/09/19 07:46:03;;;;;;;11.43;3.77;;;16.30;99.90;;;;;;6319084;22;20453;-85
2022/09/19 07:48:28;;;;;;;6.07;2.83;;;16.30;99.90;;;;;;6325162;22;20214;-85
2022/09/19 07:51:04;;;;;;;7.97;3.57;;;16.20;99.90;;;;;;6292273;22;20652;-85
2022/09/19 07:53:31;;;;;;;13.40;2.93;;;16.20;99.90;;;;;;6308521;22;20167;-85
2022/09/19 07:55:57;;;;;;;15.10;3.53;;;16.20;99.90;;;;;;6306773;22;20495;-85
2022/09/19 07:58:30;;;;;;;15.80;3.27;;;16.30;99.90;;;;;;6309908;22;20368;-85
2022/09/19 08:00:59;;;;;;;10.73;2.57;;;16.40;69.40;;;;;;6307829;22;20558;-85
2022/09/19 08:03:24;;;;;;;17.27;3.50;;;16.60;1.00;;;;;;6281158;22;20537;-85
2022/09/19 08:05:51;;;;;;;14.77;4.80;;;16.90;1.00;;;;;;6308344;22;20401;-86
2022/09/19 08:08:20;;;;;;;12.70;3.00;;;17.20;1.00;;;;;;6307173;22;20155;-85
2022/09/19 08:10:45;;;;;;;11.50;3.23;;;17.30;1.00;;;;;;6307685;22;20380;-85
2022/09/19 08:13:13;;;;;;;7.70;3.17;;;17.40;1.00;;;;;;6306292;22;20436;-86
2022/09/19 08:15:39;;;;;;;12.67;3.20;;;17.30;1.00;;;;;;6306385;22;20167;-86
2022/09/19 08:18:09;;;;;;;10.70;3.27;;;17.40;1.00;;;;;;6306985;22;20381;-84
2022/09/19 08:20:39;;;;;;;9.50;2.73;;;17.40;1.00;;;;;;6308360;22;20383;-84
2022/09/19 08:23:09;;;;;;;15.00;3.20;;;17.50;1.00;;;;;;6306776;22;20465;-85
2022/09/19 08:25:41;;;;;;;8.43;2.23;;;17.50;1.00;;;;;;6278534;22;20409;-84
2022/09/19 08:28:06;;;;;;;11.60;3.77;;;17.50;1.00;;;;;;6278946;22;20417;-86
2022/09/19 08:30:48;;;;;;;10.87;3.03;;;17.60;1.00;;;;;;6280639;22;20399;-86
2022/09/19 08:33:15;;;;;;;11.00;3.47;;;17.80;1.00;;;;;;6306805;22;20128;-83
2022/09/19 08:35:41;;;;;;;12.70;3.30;;;18.10;1.00;;;;;;6305498;22;20394;-85
2022/09/19 08:38:08;;;;;;;11.90;2.37;;;18.60;99.90;;;;;;6304301;22;20412;-86
2022/09/19 08:40:43;;;;;;;12.67;3.30;;;18.60;99.90;;;;;;6278074;22;20415;-84
2022/09/19 08:43:37;;;;;;;7.10;2.20;;;18.60;99.90;;;;;;6279872;22;20380;-84
2022/09/19 08:46:35;;;;;;;10.70;2.63;;;19.00;99.90;;;;;;6305768;22;20446;-83
2022/09/19 08:49:16;;;;;;;7.50;2.20;;;19.90;99.90;;;;;;6298321;22;20517;-86
2022/09/19 08:51:59;;;;;;;7.30;2.27;;;20.30;99.90;;;;;;6306595;22;20489;-85
2022/09/19 08:54:42;;;;;;;6.20;2.10;;;20.30;99.90;;;;;;6304841;22;20436;-84
2022/09/19 08:57:25;;;;;;;12.40;3.00;;;20.30;99.90;;;;;;6306569;22;20463;-84
2022/09/19 08:59:58;;;;;;;8.47;2.57;;;20.30;99.90;;;;;;6278118;22;20450;-84
2022/09/19 09:02:41;;;;;;;10.87;2.83;;;20.50;99.90;;;;;;6280749;22;20379;-85
2022/09/19 09:05:20;;;;;;;7.50;2.30;;;20.80;99.90;;;;;;6305033;22;20388;-84
2022/09/19 09:08:16;;;;;;;12.00;3.70;;;21.00;99.90;;;;;;6306756;22;20826;-85
2022/09/19 09:10:54;;;;;;;8.83;2.37;;;21.60;99.90;;;;;;6307950;22;20698;-84
2022/09/19 09:13:48;;;;;;;7.23;2.40;;;22.30;99.90;;;;;;6308814;22;20417;-84
2022/09/19 09:16:34;;;;;;;9.00;2.20;;;24.60;99.90;;;;;;6306605;22;20405;-85
2022/09/19 09:19:21;;;;;;;15.43;2.60;;;26.10;99.90;;;;;;6309598;22;20441;-86
2022/09/19 09:21:51;;;;;;;6.77;2.87;;;28.30;99.90;;;;;;6306306;22;20381;-86
2022/09/19 09:24:22;;;;;;;9.60;2.30;;;29.30;99.90;;;;;;6280376;22;20882;-85
2022/09/19 09:26:51;;;;;;;7.07;3.13;;;30.60;99.90;;;;;;6309106;22;20390;-85
2022/09/19 09:29:43;;;;;;;10.40;2.53;;;29.60;99.90;;;;;;6280276;22;20479;-86
2022/09/19 09:32:26;;;;;;;9.13;2.50;;;28.20;99.90;;;;;;6280944;22;20427;-85
2022/09/19 09:34:58;;;;;;;12.80;2.93;;;26.50;99.90;;;;;;6305703;22;20388;-85
2022/09/19 09:37:31;;;;;;;10.60;2.40;;;25.80;99.90;;;;;;6308223;22;20483;-85
2022/09/19 09:40:13;;;;;;;7.67;2.23;;;27.10;99.90;;;;;;6276990;22;20409;-85
2022/09/19 09:42:45;;;;;;;11.90;2.77;;;27.20;99.90;;;;;;6309086;22;20679;-85
2022/09/19 09:45:44;;;;;;;13.80;2.60;;;28.60;99.90;;;;;;6307841;22;20416;-85
2022/09/19 09:48:30;;;;;;;7.90;2.27;;;30.30;99.90;;;;;;6285699;22;20377;-82
2022/09/19 09:51:00;;;;;;;7.27;1.87;;;29.10;99.90;;;;;;6312451;22;20412;-83
2022/09/19 09:53:28;;;;;;;8.83;2.17;;;27.50;99.90;;;;;;6312466;22;20389;-84
2022/09/19 09:56:34;;;;;;;7.57;2.17;;;26.20;99.90;;;;;;6313659;22;20413;-83
2022/09/19 09:58:59;;;;;;;5.33;1.80;;;25.10;99.90;;;;;;6278444;22;20454;-84
2022/09/19 10:04:45;;;;;;;8.10;1.80;;;23.60;99.90;;;;;;6308858;22;20660;-85
2022/09/19 10:07:38;;;;;;;5.03;1.80;;;23.20;99.90;;;;;;6306092;22;20385;-85
2022/09/19 10:10:18;;;;;;;6.80;1.60;;;22.50;99.90;;;;;;6307729;22;20370;-86
2022/09/19 10:13:13;;;;;;;7.53;1.83;;;21.80;99.90;;;;;;6307224;22;20397;-85
2022/09/19 10:15:41;;;;;;;4.37;1.30;;;22.10;99.90;;;;;;6306904;22;20890;-85
2022/09/19 10:18:13;;;;;;;6.37;1.60;;;22.90;99.90;;;;;;6307805;22;20374;-85
2022/09/19 10:20:49;;;;;;;4.57;1.47;;;24.30;99.90;;;;;;6308495;22;20383;-85
2022/09/19 10:23:21;;;;;;;7.67;1.70;;;25.70;99.90;;;;;;6305696;22;20387;-84
2022/09/19 10:25:54;;;;;;;4.50;1.20;;;26.10;99.90;;;;;;6309956;22;20707;-84
2022/09/19 10:28:32;;;;;;;4.57;1.73;;;26.30;99.90;;;;;;6309661;22;20351;-83
2022/09/19 10:31:00;;;;;;;11.33;3.00;;;26.40;99.90;;;;;;6310472;22;20389;-83
2022/09/19 10:33:28;;;;;;;7.67;2.00;;;26.20;99.90;;;;;;6308580;22;20410;-83
2022/09/19 10:35:58;;;;;;;5.60;2.33;;;26.10;99.90;;;;;;6308402;22;20394;-86
2022/09/19 10:38:26;;;;;;;8.10;1.97;;;25.90;99.90;;;;;;6307150;22;20362;-84
2022/09/19 10:41:01;;;;;;;9.50;2.80;;;25.90;99.90;;;;;;6309971;22;20379;-84
2022/09/19 10:43:49;;;;;;;7.13;2.00;;;26.00;99.90;;;;;;6308885;22;20423;-85
2022/09/19 10:46:21;;;;;;;7.93;1.97;;;26.70;99.90;;;;;;6282756;22;20406;-84
2022/09/19 10:48:56;;;;;;;8.63;2.07;;;27.90;99.90;;;;;;6307923;22;20366;-83
2022/09/19 10:51:27;;;;;;;9.20;2.53;;;29.10;99.90;;;;;;6303401;22;20851;-86
2022/09/19 10:53:57;;;;;;;12.67;2.37;;;29.10;99.90;;;;;;6276363;22;20432;-84
2022/09/19 10:56:26;;;;;;;5.30;1.63;;;28.80;99.90;;;;;;6276311;22;20479;-84
2022/09/19 10:59:03;;;;;;;8.53;2.47;;;28.60;99.90;;;;;;6303604;22;20835;-86
2022/09/19 11:01:29;;;;;;;10.13;2.03;;;28.60;99.90;;;;;;6304467;22;20370;-86
2022/09/19 11:04:13;;;;;;;5.80;1.97;;;28.80;99.90;;;;;;6303665;22;20414;-84
2022/09/19 11:06:59;;;;;;;15.33;2.50;;;28.60;99.90;;;;;;6303857;22;20167;-84
2022/09/19 11:09:45;;;;;;;8.53;2.43;;;28.80;99.90;;;;;;6273875;22;20370;-85
2022/09/19 11:12:14;;;;;;;8.20;1.60;;;29.70;99.90;;;;;;6302674;22;20408;-84
2022/09/19 11:14:41;;;;;;;9.37;1.97;;;30.30;99.90;;;;;;6273923;22;20709;-85
2022/09/19 11:17:37;;;;;;;8.43;2.17;;;30.80;99.90;;;;;;6301098;22;20472;-84
2022/09/19 11:20:18;;;;;;;4.83;2.03;;;30.90;99.90;;;;;;6296038;22;20424;-86
2022/09/19 11:23:19;;;;;;;8.23;2.03;;;31.00;99.90;;;;;;6303882;22;20394;-84
2022/09/19 11:26:04;;;;;;;9.27;2.33;;;30.70;99.90;;;;;;6226006;22;20741;-84
2022/09/19 11:29:07;;;;;;;7.13;2.07;;;31.10;99.90;;;;;;6304608;22;20426;-83
2022/09/19 11:32:05;;;;;;;7.43;1.70;;;31.40;99.90;;;;;;6302800;22;20377;-86
2022/09/19 11:34:59;;;;;;;8.83;2.20;;;31.50;99.00;;;;;;6305844;22;20351;-84
2022/09/19 11:37:53;;;;;;;6.40;1.83;;;31.50;97.90;;;;;;6306574;22;20711;-84
2022/09/19 11:40:48;;;;;;;5.47;1.90;;;31.20;94.80;;;;;;6306968;22;20378;-83
2022/09/19 11:43:44;;;;;;;5.53;1.80;;;31.10;93.50;;;;;;6309377;22;20358;-83
2022/09/19 11:46:19;;;;;;;12.00;2.03;;;31.30;92.90;;;;;;6307895;22;20418;-84
2022/09/19 11:49:01;;;;;;;7.07;1.53;;;31.10;91.50;;;;;;6307772;22;20444;-87
2022/09/19 11:51:54;;;;;;;6.87;1.97;;;31.40;90.90;;;;;;6282271;22;20386;-83
2022/09/19 11:54:31;;;;;;;7.53;1.70;;;31.20;86.30;;;;;;6308115;22;20363;-83
2022/09/19 11:57:08;;;;;;;7.73;1.80;;;31.00;83.10;;;;;;6305705;22;20424;-84
2022/09/19 12:00:00;;;;;;;6.80;1.87;;;31.10;82.70;;;;;;6278768;22;20399;-82
2022/09/19 12:02:38;;;;;;;10.00;2.77;;;31.00;80.40;;;;;;6279341;22;20901;-84
2022/09/19 12:05:40;;;;;;;7.43;2.07;;;30.40;74.80;;;;;;6305463;22;20446;-86
2022/09/19 12:08:21;;;;;;;14.90;1.70;;;29.00;66.90;;;;;;6277454;22;20377;-86
2022/09/19 12:10:54;;;;;;;6.40;1.70;;;27.30;59.50;;;;;;6280009;22;20388;-85
2022/09/19 12:13:31;;;;;;;5.67;1.30;;;26.20;57.10;;;;;;6308239;22;20362;-85
2022/09/19 12:16:04;;;;;;;2.70;0.90;;;25.60;55.70;;;;;;6278256;22;20432;-85
2022/09/19 12:18:38;;;;;;;2.63;0.80;;;25.20;57.20;;;;;;6307090;22;20387;-85
2022/09/19 12:21:07;;;;;;;3.37;1.10;;;24.70;57.30;;;;;;6307481;22;20365;-86
2022/09/19 12:26:34;;;;;;;2.80;0.90;;;23.80;57.50;;;;;;6307200;22;20393;-86
2022/09/19 12:29:17;;;;;;;3.17;0.93;;;23.20;57.60;;;;;;6307806;22;20377;-86
2022/09/19 12:31:48;;;;;;;3.57;1.13;;;22.70;58.80;;;;;;6279913;22;20519;-89
2022/09/19 12:34:29;;;;;;;3.10;1.27;;;22.00;78.10;;;;;;6277715;22;20380;-86
2022/09/19 12:37:36;;;;;;;3.53;1.30;;;21.40;62.10;;;;;;6277975;22;20488;-88
2022/09/19 12:40:05;;;;;;;3.40;1.40;;;20.90;66.40;;;;;;6213045;22;20421;-86
2022/09/19 12:42:57;;;;;;;3.90;1.20;;;20.50;90.10;;;;;;6305940;22;20397;-86
2022/09/19 12:45:30;;;;;;;3.10;1.07;;;20.30;79.40;;;;;;6306667;22;20418;-85
2022/09/19 12:48:15;;;;;;;;;;;;;;;;;;;;;
2022/09/19 12:50:44;;;;;;;2.30;1.20;;;19.90;92.70;;;;;;6305137;22;20441;-85
2022/09/19 12:53:37;;;;;;;2.53;1.17;;;19.80;98.90;;;;;;6305410;22;20381;-87
2022/09/19 12:56:16;;;;;;;9.00;2.13;;;19.90;99.90;;;;;;6304293;22;20420;-86
2022/09/19 12:58:48;;;;;;;4.10;1.47;;;20.00;99.90;;;;;;6304548;22;20353;-84
2022/09/19 13:02:03;;;;;;;2.17;1.07;;;20.20;99.90;;;;;;6308563;22;20400;-85
2022/09/19 13:04:39;;;;;;;3.53;1.50;;;20.80;99.90;;;;;;6269342;22;20428;-85
2022/09/19 13:07:18;;;;;;;3.87;1.37;;;21.20;99.90;;;;;;6305036;22;20389;-87
2022/09/19 13:10:00;;;;;;;9.87;1.80;;;21.30;99.90;;;;;;6308206;22;20382;-85
2022/09/19 13:12:41;;;;;;;4.10;1.60;;;21.30;99.90;;;;;;6307969;22;20354;-85
2022/09/19 13:15:27;;;;;;;5.23;1.63;;;21.30;99.90;;;;;;6307237;22;20392;-85
2022/09/19 13:23:30;;;;;;;6.10;1.43;;;21.90;99.90;;;;;;6308893;22;20483;-84
2022/09/19 13:26:19;;;;;;;5.90;1.63;;;22.00;99.90;;;;;;6308513;22;20469;-83
2022/09/19 13:28:55;;;;;;;9.43;1.40;;;21.90;99.90;;;;;;6307891;22;20365;-84
2022/09/19 13:31:55;;;;;;;3.47;1.13;;;21.90;99.90;;;;;;6308279;22;20382;-83
2022/09/19 13:34:59;;;;;;;5.80;1.60;;;21.90;99.90;;;;;;6280580;22;20419;-82
2022/09/19 13:37:32;;;;;;;7.07;1.50;;;21.90;99.90;;;;;;6281485;22;20781;-82
2022/09/19 13:40:28;;;;;;;7.13;1.83;;;22.40;99.90;;;;;;6309723;22;20380;-84
2022/09/19 13:43:16;;;;;;;4.60;2.07;;;23.10;99.90;;;;;;6308996;22;20429;-84
2022/09/19 13:46:18;;;;;;;11.23;1.87;;;23.10;99.90;;;;;;6282382;22;20459;-83
2022/09/19 13:49:21;;;;;;;7.73;1.90;;;23.60;99.90;;;;;;6173844;22;20448;-86
2022/09/19 13:52:01;;;;;;;6.20;1.50;;;24.20;99.90;;;;;;6309129;22;20723;-83
2022/09/19 13:54:39;;;;;;;7.10;1.60;;;24.40;99.90;;;;;;6309642;22;20361;-85
2022/09/19 13:57:19;;;;;;;4.17;1.30;;;24.30;99.90;;;;;;6310085;22;20409;-83
2022/09/19 13:59:55;;;;;;;5.23;1.07;;;24.00;99.90;;;;;;6307161;22;20446;-83
2022/09/19 14:02:31;;;;;;;7.13;1.70;;;23.70;99.90;;;;;;6309539;22;20387;-83
2022/09/19 14:04:58;;;;;;;6.37;2.10;;;23.40;99.90;;;;;;6310850;22;20427;-85
2022/09/19 14:07:56;;;;;;;10.00;1.50;;;22.90;99.90;;;;;;6284531;22;20743;-84
2022/09/19 14:10:27;;;;;;;3.57;1.50;;;22.30;99.90;;;;;;6310644;22;20384;-84
2022/09/19 14:12:58;;;;;;;7.10;1.40;;;22.20;99.90;;;;;;6284792;22;20405;-84
2022/09/19 14:15:31;;;;;;;5.53;1.33;;;22.60;99.90;;;;;;6311773;22;20395;-84
2022/09/19 14:18:12;;;;;;;4.43;1.60;;;23.20;99.90;;;;;;6285835;22;20384;-86
2022/09/19 14:20:52;;;;;;;4.60;1.37;;;23.60;99.90;;;;;;6312755;22;20405;-85
2022/09/19 14:23:20;;;;;;;7.60;1.43;;;23.80;99.90;;;;;;6309842;22;20357;-85
2022/09/19 14:26:00;;;;;;;5.20;1.30;;;24.00;99.90;;;;;;6309902;22;20417;-82
2022/09/19 14:28:41;;;;;;;5.33;1.33;;;24.10;99.90;;;;;;6308861;22;20392;-86
2022/09/19 14:31:32;;;;;;;4.43;1.37;;;24.00;99.90;;;;;;6280557;22;20435;-84
2022/09/19 14:34:31;;;;;;;9.93;2.03;;;23.80;99.90;;;;;;6261351;22;20389;-82
2022/09/19 14:37:30;;;;;;;5.63;1.27;;;23.80;99.90;;;;;;6309679;22;20712;-83
2022/09/19 14:40:22;;;;;;;3.40;1.23;;;24.00;99.90;;;;;;6308985;22;20374;-83
2022/09/19 14:43:18;;;;;;;4.33;1.63;;;24.00;99.90;;;;;;6308992;22;20464;-84
2022/09/19 14:46:16;;;;;;;6.27;1.60;;;23.70;99.90;;;;;;6308112;22;20408;-85
2022/09/19 14:49:14;;;;;;;3.07;1.13;;;23.50;99.90;;;;;;6309467;22;20361;-85
2022/09/19 14:51:52;;;;;;;4.50;1.30;;;23.30;99.90;;;;;;6309082;22;20356;-84
2022/09/19 14:54:44;;;;;;;4.13;1.47;;;23.10;99.90;;;;;;6308353;22;20454;-85
2022/09/19 14:57:20;;;;;;;4.30;1.63;;;22.90;99.90;;;;;;6309790;22;20764;-83
2022/09/19 14:59:46;;;;;;;7.50;1.10;;;22.40;99.90;;;;;;6283151;22;20377;-85
2022/09/19 15:02:32;;;;;;;5.27;1.53;;;22.00;99.90;;;;;;6283751;22;20399;-84
2022/09/19 15:05:03;;;;;;;5.67;1.60;;;21.60;99.90;;;;;;6310527;22;20265;-81
2022/09/19 15:07:31;;;;;;;5.27;1.93;;;21.40;99.90;;;;;;6309970;22;20386;-83
2022/09/19 15:09:56;;;;;;;5.70;1.20;;;21.30;99.90;;;;;;6310816;22;20380;-83
2022/09/19 15:12:35;;;;;;;7.63;3.27;;;21.30;99.90;;;;;;6309740;22;20381;-83
2022/09/19 15:15:02;;;;;;;2.50;1.23;;;21.40;99.90;;;;;;6309770;22;20143;-83
2022/09/19 15:17:31;;;;;;;4.23;1.20;;;21.30;99.90;;;;;;6310012;22;20391;-83
2022/09/19 15:20:05;;;;;;;5.17;1.47;;;21.40;99.90;;;;;;6282154;22;20397;-83
2022/09/19 15:22:40;;;;;;;2.83;1.07;;;21.10;99.90;;;;;;6308205;22;20392;-83
2022/09/19 15:25:21;;;;;;;6.73;1.43;;;21.00;99.90;;;;;;6310208;22;20733;-82
2022/09/19 15:27:51;;;;;;;5.43;1.80;;;20.80;99.90;;;;;;6282274;22;20374;-87
2022/09/19 15:30:48;;;;;;;5.30;1.77;;;20.70;99.90;;;;;;6308813;22;20384;-84
2022/09/19 15:33:14;;;;;;;6.33;1.93;;;20.60;99.90;;;;;;6307997;22;20370;-84
2022/09/19 15:35:45;;;;;;;4.30;1.53;;;20.70;99.90;;;;;;6308884;22;20544;-84
2022/09/19 15:38:25;;;;;;;6.83;2.10;;;20.70;99.90;;;;;;6309078;22;20175;-84
2022/09/19 15:40:57;;;;;;;6.60;2.33;;;20.80;99.90;;;;;;6282489;22;20392;-84
2022/09/19 15:43:26;;;;;;;9.00;1.90;;;20.90;99.90;;;;;;6308757;22;20361;-83
2022/09/19 15:46:03;;;;;;;5.23;2.03;;;21.10;99.90;;;;;;6303757;22;20458;-83
2022/09/19 15:48:45;;;;;;;7.43;2.83;;;21.30;99.90;;;;;;6304396;22;20360;-83
2022/09/19 15:51:32;;;;;;;8.83;1.80;;;21.30;99.90;;;;;;6305256;22;20422;-82
2022/09/19 15:54:16;;;;;;;4.70;1.77;;;21.40;99.90;;;;;;6304501;22;20371;-83
2022/09/19 15:56:46;;;;;;;10.70;3.07;;;21.30;99.90;;;;;;6308026;22;20423;-83
2022/09/19 15:59:29;;;;;;;7.40;4.47;;;20.90;99.90;;;;;;6278281;22;20513;-82
2022/09/19 16:02:08;;;;;;;5.43;1.80;;;20.60;99.90;;;;;;6278769;22;20386;-83
2022/09/19 16:04:35;;;;;;;4.90;1.70;;;20.40;99.90;;;;;;6307521;22;20406;-86
2022/09/19 16:09:50;;;;;;;3.77;1.33;;;20.10;99.90;;;;;;6307597;22;20396;-83
2022/09/19 16:12:27;;;;;;;5.67;1.60;;;20.00;99.90;;;;;;6308271;22;20369;-84
2022/09/19 16:15:22;;;;;;;5.33;1.70;;;20.00;99.90;;;;;;6309527;22;20362;-82
2022/09/19 16:17:51;;;;;;;6.10;1.97;;;20.00;99.90;;;;;;6310415;22;20364;-84
2022/09/19 16:20:31;;;;;;;3.60;1.30;;;20.00;99.90;;;;;;6310021;22;20369;-83
2022/09/19 16:23:01;;;;;;;7.90;1.83;;;19.90;99.90;;;;;;6306242;22;20369;-83
2022/09/19 16:25:51;;;;;;;5.13;1.40;;;20.00;99.90;;;;;;6308571;22;20436;-82
2022/09/19 16:28:23;;;;;;;4.73;1.60;;;19.90;99.90;;;;;;6307980;22;20362;-83
2022/09/19 16:31:10;;;;;;;3.50;1.30;;;19.90;99.90;;;;;;6307000;22;20365;-83
2022/09/19 16:33:58;;;;;;;9.00;1.97;;;19.80;99.90;;;;;;6307965;22;20361;-82
2022/09/19 16:36:25;;;;;;;5.73;1.70;;;19.70;99.90;;;;;;6280084;22;20459;-82